ESNN/SDL METAR and TAF weather

Enter ICAO airport designator
Station Type Date Time Source
ESNN METAR 2018/01/16 09:20 UTC NOAA

ESNN 160920Z 13026KT 5000 -RASN OVC009 M01/M02 Q0994 R16/79//28


Station Type Date Time Source
ESNN Decoded METAR 2018/01/16 09:20 UTC NOAA

Sundsvall-Harnosand Flygplats, Sweden (ESNN) 62-32N 017-27E 10M
Jan 16, 2018 - 04:20 AM EST / 2018.01.16 0920 UTC
Wind: from the SE (130 degrees) at 30 MPH (26 KT):0
Visibility: 3 mile(s):0
Sky conditions: overcast
Weather: light rain, snow
Temperature: 30 F (-1 C)
Windchill: 14 F (-10 C):1
Dew Point: 28 F (-2 C)
Relative Humidity: 92%
Pressure (altimeter): 29.35 in. Hg (0994 hPa)
ob: ESNN 160920Z 13026KT 5000 -RASN OVC009 M01/M02 Q0994 R16/79//28
cycle: 9

Station Type Date Time Source
ESNN TAF 2016/05/29 09:33 UTC NOAA

TAF TAF ESNN 290830Z 2909/3018 07006KT 9999 SCT045
BECMG 2913/2915 14010KT


Example: see airport list